createdAt,value
2023-05-03T00:00:08.402Z,94921.78
2023-05-03T00:02:13.076Z,94924.38
2023-05-03T00:04:17.010Z,94921.41
2023-05-03T00:06:19.846Z,94920.00
2023-05-03T00:08:22.046Z,94915.06
2023-05-03T00:10:23.789Z,94923.47
2023-05-03T00:12:25.457Z,94934.41
2023-05-03T00:14:27.307Z,94934.13
2023-05-03T00:16:29.001Z,94931.28
2023-05-03T00:18:30.781Z,94927.38
2023-05-03T00:20:33.344Z,94924.63
2023-05-03T00:22:35.512Z,94920.31
2023-05-03T00:24:37.103Z,94916.72
2023-05-03T00:26:38.686Z,94924.94
2023-05-03T00:28:40.355Z,94916.09
2023-05-03T00:30:41.919Z,94915.28
2023-05-03T00:32:43.725Z,94918.22
2023-05-03T00:34:45.767Z,94914.56
2023-05-03T00:36:47.416Z,94920.81
2023-05-03T00:38:49.014Z,94912.28
2023-05-03T00:40:56.383Z,94931.53
2023-05-03T00:42:57.972Z,94926.97
2023-05-03T00:44:59.589Z,94930.28
2023-05-03T00:47:01.466Z,94932.03
2023-05-03T00:49:03.146Z,94937.31
2023-05-03T00:51:05.877Z,94932.88
2023-05-03T00:53:07.450Z,94952.25
2023-05-03T00:55:09.932Z,94946.66
2023-05-03T00:57:11.988Z,94942.53
2023-05-03T00:59:13.885Z,94943.03
2023-05-03T01:01:15.543Z,94939.59
2023-05-03T01:03:17.473Z,94940.44
2023-05-03T01:05:19.221Z,94940.13
2023-05-03T01:07:55.678Z,94921.84
2023-05-03T01:10:05.331Z,94914.78
2023-05-03T01:12:36.352Z,94905.59
2023-05-03T01:15:03.079Z,94897.41
2023-05-03T01:17:14.727Z,94908.91
2023-05-03T01:19:29.275Z,94904.94
2023-05-03T01:21:31.632Z,94899.03
2023-05-03T01:23:40.396Z,94898.38
2023-05-03T01:25:42.225Z,94898.72
2023-05-03T01:27:43.894Z,94899.91
2023-05-03T01:29:45.783Z,94898.09
2023-05-03T01:32:00.971Z,94897.59
2023-05-03T01:34:18.777Z,94889.91
2023-05-03T01:36:41.284Z,94882.53
2023-05-03T01:38:43.185Z,94876.81
2023-05-03T01:40:51.386Z,94890.56
2023-05-03T01:42:55.677Z,94882.03
2023-05-03T01:44:57.494Z,94895.00
2023-05-03T01:46:59.184Z,94884.66
2023-05-03T01:49:00.830Z,94871.00
2023-05-03T01:51:02.568Z,94871.84
2023-05-03T01:53:04.142Z,94869.56
2023-05-03T01:55:06.404Z,94857.75
2023-05-03T01:57:08.059Z,94866.09
2023-05-03T01:59:09.668Z,94853.31
2023-05-03T02:01:11.302Z,94861.03
2023-05-03T02:03:12.944Z,94846.91
2023-05-03T02:05:14.705Z,94835.94
2023-05-03T02:07:16.296Z,94841.34
2023-05-03T02:09:18.462Z,94842.31
2023-05-03T02:11:21.710Z,94842.81
2023-05-03T02:13:23.378Z,94836.75
2023-05-03T02:15:24.967Z,94830.84
2023-05-03T02:17:26.644Z,94834.47
2023-05-03T02:19:28.309Z,94827.06
2023-05-03T02:21:29.898Z,94834.78
2023-05-03T02:23:31.501Z,94836.09
2023-05-03T02:25:33.139Z,94842.03
2023-05-03T02:27:34.740Z,94847.25
2023-05-03T02:29:36.573Z,94846.41
2023-05-03T02:31:38.126Z,94844.44
2023-05-03T02:33:40.132Z,94845.75
2023-05-03T02:35:41.831Z,94857.34
2023-05-03T02:37:43.744Z,94852.31
2023-05-03T02:39:45.381Z,94863.25
2023-05-03T02:41:47.220Z,94866.91
2023-05-03T02:43:48.835Z,94860.34
2023-05-03T02:45:50.460Z,94850.50
2023-05-03T02:47:52.116Z,94868.06
2023-05-03T02:49:53.716Z,94858.00
2023-05-03T02:51:56.757Z,94856.25
2023-05-03T02:53:58.439Z,94860.81
2023-05-03T02:56:00.043Z,94848.53
2023-05-03T02:58:01.752Z,94846.56
2023-05-03T03:00:05.862Z,94851.78
2023-05-03T03:02:07.721Z,94844.22
2023-05-03T03:04:09.849Z,94868.50
2023-05-03T03:06:11.622Z,94868.38
2023-05-03T03:08:13.284Z,94865.59
2023-05-03T03:10:14.876Z,94856.38
2023-05-03T03:12:16.467Z,94858.50
2023-05-03T03:14:18.098Z,94862.16
2023-05-03T03:16:19.881Z,94870.97
2023-05-03T03:18:21.600Z,94863.94
2023-05-03T03:20:23.178Z,94868.59
2023-05-03T03:22:25.768Z,94866.78
2023-05-03T03:24:27.471Z,94875.47
2023-05-03T03:26:29.135Z,94870.72
2023-05-03T03:28:30.744Z,94877.59
2023-05-03T03:30:32.288Z,94874.81
2023-05-03T03:32:34.014Z,94877.78
2023-05-03T03:34:35.772Z,94886.78
2023-05-03T03:36:38.040Z,94890.19
2023-05-03T03:38:41.215Z,94882.47
2023-05-03T03:40:42.821Z,94883.72
2023-05-03T03:42:44.470Z,94874.91
2023-05-03T03:44:46.103Z,94884.22
2023-05-03T03:46:47.741Z,94880.78
2023-05-03T03:48:49.408Z,94889.78
2023-05-03T03:50:51.363Z,94893.75
2023-05-03T03:52:53.002Z,94892.13
2023-05-03T03:54:54.588Z,94899.16
2023-05-03T03:56:56.236Z,94904.47
2023-05-03T03:58:57.864Z,94911.69
2023-05-03T04:01:00.787Z,94913.06
2023-05-03T04:03:03.146Z,94905.66
2023-05-03T04:05:08.159Z,94919.13
2023-05-03T04:07:09.853Z,94922.88
2023-05-03T04:09:11.491Z,94913.31
2023-05-03T04:11:13.309Z,94915.44
2023-05-03T04:13:14.961Z,94912.28
2023-05-03T04:15:16.631Z,94916.53
2023-05-03T04:17:18.231Z,94920.81
2023-05-03T04:19:22.006Z,94926.41
2023-05-03T04:21:23.627Z,94929.50
2023-05-03T04:23:25.286Z,94942.44
2023-05-03T04:25:27.843Z,94938.06
2023-05-03T04:27:30.209Z,94948.38
2023-05-03T04:29:31.874Z,94951.09
2023-05-03T04:31:33.491Z,94948.38
2023-05-03T04:33:35.284Z,94970.13
2023-05-03T04:35:37.083Z,94961.31
2023-05-03T04:37:40.169Z,94958.41
2023-05-03T04:39:41.771Z,94962.00
2023-05-03T04:41:43.362Z,94966.63
2023-05-03T04:43:44.931Z,94971.31
2023-05-03T04:45:46.540Z,94976.38
2023-05-03T04:47:48.395Z,94969.50
2023-05-03T04:49:50.112Z,94980.94
2023-05-03T04:51:51.658Z,94982.91
2023-05-03T04:53:53.307Z,94983.19
2023-05-03T04:55:54.896Z,94981.94
2023-05-03T04:57:56.754Z,94984.38
2023-05-03T04:59:58.458Z,94977.66
2023-05-03T05:02:00.269Z,94978.16
2023-05-03T05:04:02.042Z,94993.94
2023-05-03T05:06:03.975Z,94997.91
2023-05-03T05:08:05.790Z,95007.09
2023-05-03T05:10:08.267Z,95010.03
2023-05-03T05:12:09.950Z,95012.66
2023-05-03T05:14:11.733Z,95015.63
2023-05-03T05:16:13.346Z,95017.38
2023-05-03T05:18:14.916Z,95007.19
2023-05-03T05:20:17.698Z,95005.28
2023-05-03T05:22:20.986Z,95014.59
2023-05-03T05:24:22.743Z,95020.00
2023-05-03T05:26:24.416Z,95019.38
2023-05-03T05:28:28.045Z,95020.72
2023-05-03T05:30:29.594Z,95031.91
2023-05-03T05:32:31.420Z,95025.84
2023-05-03T05:34:42.141Z,95029.94
2023-05-03T05:36:46.442Z,95029.50
2023-05-03T05:38:48.052Z,95034.97
2023-05-03T05:40:49.614Z,95036.19
2023-05-03T05:42:51.358Z,95037.66
2023-05-03T05:44:52.970Z,95038.19
2023-05-03T05:46:54.600Z,95045.06
2023-05-03T05:48:56.188Z,95039.31
2023-05-03T05:50:57.816Z,95043.34
2023-05-03T05:52:59.463Z,95034.97
2023-05-03T05:55:01.292Z,95030.72
2023-05-03T05:57:03.182Z,95030.94
2023-05-03T05:59:06.102Z,95037.31
2023-05-03T06:01:08.574Z,95041.63
2023-05-03T06:03:10.256Z,95045.47
2023-05-03T06:05:12.031Z,95044.56
2023-05-03T06:07:14.673Z,95036.28
2023-05-03T06:09:24.126Z,95035.63
2023-05-03T06:11:26.835Z,95032.06
2023-05-03T06:13:28.572Z,95042.09
2023-05-03T06:15:30.147Z,95033.09
2023-05-03T06:17:31.867Z,95037.34
2023-05-03T06:19:33.564Z,95023.56
2023-05-03T06:21:35.595Z,95024.84
2023-05-03T06:23:39.606Z,95026.31
2023-05-03T06:25:41.213Z,95030.41
2023-05-03T06:27:42.848Z,95026.16
2023-05-03T06:29:45.002Z,95026.44
2023-05-03T06:31:46.755Z,95016.41
2023-05-03T06:33:48.445Z,95015.13
2023-05-03T06:35:50.078Z,95004.34
2023-05-03T06:37:52.164Z,95006.09
2023-05-03T06:39:53.774Z,94998.88
2023-05-03T06:41:55.524Z,94994.38
2023-05-03T06:43:57.155Z,94975.50
2023-05-03T06:45:58.796Z,94977.97
2023-05-03T06:48:00.393Z,94987.66
2023-05-03T06:50:02.279Z,94977.56
2023-05-03T06:52:04.331Z,94985.75
2023-05-03T06:54:09.910Z,94974.25
2023-05-03T06:56:11.517Z,94965.44
2023-05-03T06:58:13.122Z,94970.47
2023-05-03T07:00:15.958Z,94991.00
2023-05-03T07:02:18.173Z,94982.88
2023-05-03T07:04:19.801Z,94977.00
2023-05-03T07:06:23.218Z,94982.50
2023-05-03T07:08:24.859Z,94969.91
2023-05-03T07:10:30.758Z,94969.94
2023-05-03T07:12:32.664Z,94973.59
2023-05-03T07:14:34.314Z,94973.59
2023-05-03T07:16:35.977Z,94968.41
2023-05-03T07:18:37.594Z,94972.19
2023-05-03T07:20:39.355Z,94966.44
2023-05-03T07:22:41.142Z,94956.25
2023-05-03T07:24:42.870Z,94967.44
2023-05-03T07:26:44.728Z,94971.38
2023-05-03T07:28:47.121Z,94970.69
2023-05-03T07:30:48.773Z,94983.69
2023-05-03T07:32:50.867Z,94980.56
2023-05-03T07:34:52.527Z,94984.50
2023-05-03T07:36:54.170Z,94992.38
2023-05-03T07:38:58.592Z,94991.09
2023-05-03T07:41:00.390Z,95000.94
2023-05-03T07:43:02.029Z,94993.38
2023-05-03T07:45:03.829Z,94987.47
2023-05-03T07:47:05.650Z,94986.28
2023-05-03T07:49:07.262Z,94998.28
2023-05-03T07:51:08.859Z,95001.88
2023-05-03T07:53:11.632Z,94993.50
2023-05-03T07:55:13.246Z,94993.63
2023-05-03T07:57:16.277Z,94996.53
2023-05-03T07:59:17.893Z,94994.91
2023-05-03T08:01:20.489Z,94991.41
2023-05-03T08:03:22.258Z,94994.25
2023-05-03T08:05:24.048Z,94999.66
2023-05-03T08:07:25.938Z,95009.38
2023-05-03T08:09:28.322Z,95001.25
2023-05-03T08:11:30.009Z,95006.50
2023-05-03T08:13:31.670Z,94999.38
2023-05-03T08:15:33.799Z,94997.50
2023-05-03T08:17:43.081Z,94997.63
2023-05-03T08:19:45.247Z,95004.16
2023-05-03T08:21:49.600Z,94996.16
2023-05-03T08:23:51.209Z,95007.16
2023-05-03T08:25:52.876Z,95014.66
2023-05-03T08:27:55.635Z,95010.00
2023-05-03T08:29:57.254Z,95012.84
2023-05-03T08:31:59.181Z,95007.94
2023-05-03T08:34:01.690Z,95008.44
2023-05-03T08:36:03.367Z,95003.31
2023-05-03T08:38:05.354Z,95012.44
2023-05-03T08:40:08.467Z,95007.44
2023-05-03T08:42:10.092Z,95002.38
2023-05-03T08:44:12.588Z,94987.53
2023-05-03T08:46:14.817Z,94986.81
2023-05-03T08:48:16.695Z,94993.56
2023-05-03T08:50:18.345Z,95000.59
2023-05-03T08:52:21.287Z,95000.03
2023-05-03T08:54:24.296Z,95007.56
2023-05-03T08:56:43.248Z,95007.84
2023-05-03T08:58:44.862Z,95005.66
2023-05-03T09:00:46.685Z,95006.22
2023-05-03T09:02:50.301Z,95014.34
2023-05-03T09:04:52.344Z,95009.97
2023-05-03T09:07:07.409Z,95007.59
2023-05-03T09:09:09.761Z,95017.63
2023-05-03T09:11:28.044Z,95011.78
2023-05-03T09:13:31.813Z,95006.84
2023-05-03T09:15:33.542Z,95005.41
2023-05-03T09:17:35.266Z,94995.84
2023-05-03T09:19:53.588Z,94994.16
2023-05-03T09:22:06.906Z,94983.56
2023-05-03T09:24:16.519Z,94978.09
2023-05-03T09:26:28.403Z,94982.78
2023-05-03T09:28:30.051Z,94989.72
2023-05-03T09:30:31.779Z,94981.63
2023-05-03T09:32:47.995Z,94979.72
2023-05-03T09:34:49.576Z,94968.94
2023-05-03T09:36:51.181Z,94975.81
2023-05-03T09:38:52.960Z,94963.59
2023-05-03T09:40:54.576Z,94965.59
2023-05-03T09:43:09.861Z,94960.03
2023-05-03T09:45:11.769Z,94951.88
2023-05-03T09:47:13.456Z,94950.69
2023-05-03T09:49:18.039Z,94955.47
2023-05-03T09:51:20.164Z,94951.72
2023-05-03T09:53:22.117Z,94961.13
2023-05-03T09:55:24.264Z,94951.88
2023-05-03T09:57:26.777Z,94947.66
2023-05-03T09:59:28.992Z,94943.34
2023-05-03T10:01:32.046Z,94945.41
2023-05-03T10:03:44.524Z,94937.59
2023-05-03T10:05:49.969Z,94940.72
2023-05-03T10:07:53.520Z,94937.91
2023-05-03T10:09:58.147Z,94940.72
2023-05-03T10:12:02.305Z,94953.69
2023-05-03T10:14:07.764Z,94939.19
2023-05-03T10:16:13.964Z,94926.38
2023-05-03T10:18:17.044Z,94931.78
2023-05-03T10:20:28.617Z,94929.72
2023-05-03T10:22:31.350Z,94925.47
2023-05-03T10:24:33.743Z,94916.94
2023-05-03T10:26:35.352Z,94909.22
2023-05-03T10:28:39.804Z,94904.16
2023-05-03T10:30:41.575Z,94893.47
2023-05-03T10:32:44.596Z,94904.94
2023-05-03T10:34:46.492Z,94900.06
2023-05-03T10:36:50.595Z,94891.72
2023-05-03T10:38:53.224Z,94891.78
2023-05-03T10:40:55.736Z,94898.16
2023-05-03T10:42:57.740Z,94897.16
2023-05-03T10:45:01.487Z,94891.66
2023-05-03T10:47:20.382Z,94893.53
2023-05-03T10:49:26.612Z,94893.56
2023-05-03T10:51:37.557Z,94885.28
2023-05-03T10:53:41.178Z,94890.06
2023-05-03T10:56:05.902Z,94883.44
2023-05-03T10:58:12.827Z,94894.66
2023-05-03T11:00:17.293Z,94892.66
2023-05-03T11:02:22.682Z,94899.44
2023-05-03T11:04:34.223Z,94888.28
2023-05-03T11:06:38.060Z,94886.38
2023-05-03T11:08:40.322Z,94887.97
2023-05-03T11:10:42.058Z,94883.06
2023-05-03T11:12:43.639Z,94885.16
2023-05-03T11:14:45.228Z,94884.06
2023-05-03T11:16:51.818Z,94879.41
2023-05-03T11:18:54.161Z,94877.25
2023-05-03T11:20:56.033Z,94881.94
2023-05-03T11:22:57.702Z,94883.00
2023-05-03T11:24:59.324Z,94878.94
2023-05-03T11:27:07.952Z,94874.63
2023-05-03T11:29:10.865Z,94872.75
2023-05-03T11:31:13.543Z,94863.81
2023-05-03T11:33:15.149Z,94856.84
2023-05-03T11:35:17.979Z,94865.00
2023-05-03T11:37:19.670Z,94869.31
2023-05-03T11:39:21.644Z,94865.44
2023-05-03T11:41:23.276Z,94862.22
2023-05-03T11:43:25.900Z,94856.09
2023-05-03T11:45:32.829Z,94854.88
2023-05-03T11:47:34.739Z,94851.59
2023-05-03T11:49:36.422Z,94839.91
2023-05-03T11:51:38.462Z,94843.16
2023-05-03T11:53:42.491Z,94830.75
2023-05-03T11:55:46.597Z,94831.16
2023-05-03T11:57:48.247Z,94833.22
2023-05-03T11:59:50.223Z,94824.69
2023-05-03T12:01:53.455Z,94823.06
2023-05-03T12:03:59.069Z,94822.03
2023-05-03T12:06:02.597Z,94809.75
2023-05-03T12:08:05.724Z,94813.03
2023-05-03T12:10:22.852Z,94817.09
2023-05-03T12:12:31.952Z,94820.31
2023-05-03T12:15:03.113Z,94829.00
2023-05-03T12:17:07.424Z,94829.84
2023-05-03T12:19:09.640Z,94818.00
2023-05-03T12:23:17.179Z,94822.00
2023-05-03T12:25:20.916Z,94823.22
2023-05-03T12:27:23.929Z,94820.94
2023-05-03T12:29:26.823Z,94807.22
2023-05-03T12:31:33.442Z,94810.16
2023-05-03T12:33:38.638Z,94823.88
2023-05-03T12:35:41.560Z,94825.00
2023-05-03T12:37:43.851Z,94827.81
2023-05-03T12:39:50.077Z,94829.06
2023-05-03T12:44:03.045Z,94821.88
2023-05-03T12:48:09.455Z,94812.22
2023-05-03T12:50:12.705Z,94813.47
2023-05-03T12:54:19.393Z,94813.91
2023-05-03T12:56:24.514Z,94816.69
2023-05-03T12:58:43.242Z,94823.19
2023-05-03T13:01:27.965Z,94811.56
2023-05-03T13:03:21.471Z,94803.09
2023-05-03T13:05:34.677Z,94807.63
2023-05-03T13:07:42.494Z,94805.97
2023-05-03T13:11:53.231Z,94810.00
2023-05-03T13:13:54.883Z,94808.75
2023-05-03T13:15:56.514Z,94809.53
2023-05-03T13:18:01.567Z,94811.75
2023-05-03T13:20:07.427Z,94817.66
2023-05-03T13:22:09.550Z,94826.53
2023-05-03T13:24:11.221Z,94823.53
2023-05-03T13:26:12.796Z,94834.78
2023-05-03T13:28:14.443Z,94830.38
2023-05-03T13:30:16.598Z,94831.19
2023-05-03T13:32:18.347Z,94818.59
2023-05-03T13:34:20.034Z,94821.97
2023-05-03T13:36:22.786Z,94819.47
2023-05-03T13:38:24.416Z,94819.13
2023-05-03T13:40:26.089Z,94836.19
2023-05-03T13:42:28.651Z,94843.13
2023-05-03T13:44:30.246Z,94842.03
2023-05-03T13:46:32.490Z,94844.59
2023-05-03T13:48:34.205Z,94844.97
2023-05-03T13:50:35.846Z,94860.66
2023-05-03T13:52:37.416Z,94861.22
2023-05-03T13:54:39.072Z,94853.22
2023-05-03T13:56:42.991Z,94858.44
2023-05-03T13:58:44.905Z,94861.50
2023-05-03T14:00:47.004Z,94859.53
2023-05-03T14:02:48.731Z,94858.28
2023-05-03T14:04:50.489Z,94849.78
2023-05-03T14:06:52.493Z,94856.88
2023-05-03T14:08:54.814Z,94844.69
2023-05-03T14:10:56.705Z,94848.22
2023-05-03T14:12:58.529Z,94841.69
2023-05-03T14:15:03.515Z,94838.34
2023-05-03T14:17:05.241Z,94839.81
2023-05-03T14:19:07.482Z,94846.16
2023-05-03T14:21:09.402Z,94854.53
2023-05-03T14:23:11.248Z,94860.25
2023-05-03T14:25:12.918Z,94859.34
2023-05-03T14:27:16.816Z,94860.25
2023-05-03T14:29:18.503Z,94861.06
2023-05-03T14:31:20.169Z,94858.56
2023-05-03T14:33:21.852Z,94864.78
2023-05-03T14:35:23.505Z,94849.28
2023-05-03T14:37:25.120Z,94863.28
2023-05-03T14:39:26.684Z,94862.06
2023-05-03T14:41:28.327Z,94854.94
2023-05-03T14:43:29.943Z,94854.88
2023-05-03T14:45:31.504Z,94851.91
2023-05-03T14:47:34.704Z,94846.25
2023-05-03T14:49:40.740Z,94847.44
2023-05-03T14:51:44.323Z,94850.78
2023-05-03T14:53:46.019Z,94873.91
2023-05-03T14:55:47.759Z,94862.16
2023-05-03T14:57:49.445Z,94860.59
2023-05-03T14:59:51.079Z,94855.38
2023-05-03T15:01:53.732Z,94866.38
2023-05-03T15:03:55.491Z,94855.56
2023-05-03T15:05:57.134Z,94854.78
2023-05-03T15:08:00.167Z,94867.59
2023-05-03T15:10:04.097Z,94865.63
2023-05-03T15:12:06.130Z,94856.44
2023-05-03T15:14:09.143Z,94860.72
2023-05-03T15:16:11.439Z,94867.44
2023-05-03T15:18:14.752Z,94864.31
2023-05-03T15:20:16.816Z,94852.63
2023-05-03T15:22:18.621Z,94846.06
2023-05-03T15:24:20.553Z,94844.50
2023-05-03T15:26:22.618Z,94838.28
2023-05-03T15:28:24.201Z,94829.59
2023-05-03T15:30:25.807Z,94834.97
2023-05-03T15:32:27.339Z,94834.69
2023-05-03T15:34:29.677Z,94837.19
2023-05-03T15:36:36.597Z,94850.34
2023-05-03T15:38:38.592Z,94849.84
2023-05-03T15:40:40.855Z,94867.56
2023-05-03T15:42:42.434Z,94855.53
2023-05-03T15:44:46.943Z,94848.31
2023-05-03T15:46:48.677Z,94842.38
2023-05-03T15:48:52.413Z,94837.25
2023-05-03T15:50:54.029Z,94846.94
2023-05-03T15:52:56.998Z,94854.31
2023-05-03T15:54:58.573Z,94864.19
2023-05-03T15:57:00.276Z,94850.72
2023-05-03T15:59:01.988Z,94858.91
2023-05-03T16:01:04.148Z,94855.31
2023-05-03T16:03:06.037Z,94841.84
2023-05-03T16:05:08.632Z,94847.44
2023-05-03T16:07:11.364Z,94852.03
2023-05-03T16:09:13.048Z,94864.31
2023-05-03T16:11:15.131Z,94864.28
2023-05-03T16:13:16.830Z,94859.84
2023-05-03T16:15:18.566Z,94856.28
2023-05-03T16:17:20.304Z,94858.88
2023-05-03T16:19:22.436Z,94857.72
2023-05-03T16:21:24.042Z,94854.06
2023-05-03T16:23:25.842Z,94845.75
2023-05-03T16:25:28.792Z,94845.50
2023-05-03T16:27:30.928Z,94835.38
2023-05-03T16:29:34.442Z,94840.31
2023-05-03T16:31:36.200Z,94864.44
2023-05-03T16:33:37.819Z,94863.94
2023-05-03T16:35:39.478Z,94861.66
2023-05-03T16:37:42.023Z,94855.22
2023-05-03T16:39:43.568Z,94853.25
2023-05-03T16:41:45.172Z,94853.91
2023-05-03T16:43:46.813Z,94850.78
2023-05-03T16:45:56.130Z,94857.63
2023-05-03T16:47:57.920Z,94867.34
2023-05-03T16:49:59.486Z,94864.56
2023-05-03T16:52:01.333Z,94878.53
2023-05-03T16:54:04.525Z,94872.28
2023-05-03T16:56:06.851Z,94867.84
2023-05-03T16:58:08.428Z,94863.09
2023-05-03T17:00:11.139Z,94863.09
2023-05-03T17:02:13.100Z,94868.16
2023-05-03T17:04:14.824Z,94873.28
2023-05-03T17:06:18.342Z,94871.00
2023-05-03T17:08:19.952Z,94873.34
2023-05-03T17:10:21.532Z,94880.72
2023-05-03T17:12:23.798Z,94880.72
2023-05-03T17:14:25.533Z,94866.91
2023-05-03T17:16:27.327Z,94872.19
2023-05-03T17:18:28.911Z,94885.00
2023-05-03T17:20:30.931Z,94873.03
2023-05-03T17:22:32.879Z,94878.44
2023-05-03T17:24:34.919Z,94880.22
2023-05-03T17:26:36.957Z,94875.59
2023-05-03T17:28:38.973Z,94876.91
2023-05-03T17:30:40.552Z,94883.28
2023-05-03T17:32:42.160Z,94884.78
2023-05-03T17:34:43.824Z,94888.53
2023-05-03T17:36:45.379Z,94887.88
2023-05-03T17:38:46.993Z,94891.16
2023-05-03T17:40:48.749Z,94890.34
2023-05-03T17:42:50.563Z,94890.19
2023-05-03T17:44:53.217Z,94880.03
2023-05-03T17:46:54.866Z,94887.72
2023-05-03T17:48:57.659Z,94882.81
2023-05-03T17:50:59.259Z,94882.81
2023-05-03T17:53:00.998Z,94875.94
2023-05-03T17:55:02.806Z,94883.69
2023-05-03T17:57:04.374Z,94876.81
2023-05-03T17:59:06.058Z,94885.34
2023-05-03T18:01:09.210Z,94889.44
2023-05-03T18:03:13.337Z,94886.66
2023-05-03T18:05:17.796Z,94882.03
2023-05-03T18:07:19.391Z,94879.59
2023-05-03T18:09:21.081Z,94887.25
2023-05-03T18:11:23.078Z,94883.97
2023-05-03T18:13:24.766Z,94888.22
2023-05-03T18:15:26.431Z,94887.53
2023-05-03T18:17:31.015Z,94885.91
2023-05-03T18:19:32.622Z,94892.50
2023-05-03T18:21:35.565Z,94886.22
2023-05-03T18:23:37.433Z,94897.22
2023-05-03T18:25:38.986Z,94897.09
2023-05-03T18:27:40.631Z,94889.44
2023-05-03T18:29:42.215Z,94907.31
2023-05-03T18:31:43.821Z,94912.91
2023-05-03T18:33:45.850Z,94900.44
2023-05-03T18:35:49.287Z,94916.19
2023-05-03T18:37:50.872Z,94909.63
2023-05-03T18:39:52.542Z,94913.56
2023-05-03T18:41:54.186Z,94906.16
2023-05-03T18:43:57.433Z,94911.44
2023-05-03T18:45:59.076Z,94903.88
2023-05-03T18:48:00.838Z,94907.66
2023-05-03T18:50:04.325Z,94904.19
2023-05-03T18:52:06.124Z,94901.41
2023-05-03T18:54:07.700Z,94901.25
2023-05-03T18:56:10.091Z,94902.25
2023-05-03T18:58:11.711Z,94902.41
2023-05-03T19:00:13.925Z,94908.47
2023-05-03T19:02:15.683Z,94918.78
2023-05-03T19:04:17.479Z,94915.69
2023-05-03T19:06:19.200Z,94910.63
2023-05-03T19:08:20.801Z,94919.97
2023-05-03T19:10:22.502Z,94918.19
2023-05-03T19:12:24.152Z,94919.47
2023-05-03T19:14:25.721Z,94918.00
2023-05-03T19:16:27.941Z,94925.88
2023-05-03T19:18:29.547Z,94929.66
2023-05-03T19:20:31.088Z,94936.38
2023-05-03T19:22:32.682Z,94928.31
2023-05-03T19:24:34.250Z,94928.81
2023-05-03T19:26:35.788Z,94927.19
2023-05-03T19:28:37.471Z,94926.84
2023-05-03T19:30:41.376Z,94929.66
2023-05-03T19:32:43.051Z,94922.59
2023-05-03T19:34:44.699Z,94918.34
2023-05-03T19:36:46.287Z,94924.06
2023-05-03T19:38:47.894Z,94923.41
2023-05-03T19:40:59.058Z,94923.41
2023-05-03T19:43:00.843Z,94927.34
2023-05-03T19:45:03.590Z,94918.81
2023-05-03T19:47:05.270Z,94918.16
2023-05-03T19:49:07.206Z,94917.50
2023-05-03T19:51:13.524Z,94913.56
2023-05-03T19:53:15.172Z,94914.41
2023-05-03T19:55:16.914Z,94921.44
2023-05-03T19:57:18.689Z,94929.50
2023-05-03T19:59:20.367Z,94925.72
2023-05-03T20:01:22.126Z,94935.91
2023-05-03T20:03:24.262Z,94936.38
2023-05-03T20:05:26.050Z,94938.03
2023-05-03T20:07:27.611Z,94932.59
2023-05-03T20:09:29.215Z,94924.06
2023-05-03T20:11:30.787Z,94925.22
2023-05-03T20:13:33.312Z,94923.72
2023-05-03T20:15:35.680Z,94922.75
2023-05-03T20:17:38.495Z,94925.72
2023-05-03T20:19:40.117Z,94920.16
2023-05-03T20:21:42.226Z,94918.50
2023-05-03T20:23:44.109Z,94913.91
2023-05-03T20:25:45.672Z,94917.34
2023-05-03T20:27:47.321Z,94906.00
2023-05-03T20:29:48.943Z,94905.84
2023-05-03T20:31:53.717Z,94905.03
2023-05-03T20:33:55.364Z,94900.59
2023-05-03T20:35:56.971Z,94900.44
2023-05-03T20:37:58.619Z,94894.53
2023-05-03T20:40:00.326Z,94897.16
2023-05-03T20:42:02.482Z,94899.78
2023-05-03T20:44:04.583Z,94902.88
2023-05-03T20:46:06.296Z,94902.22
2023-05-03T20:48:08.157Z,94892.38
2023-05-03T20:50:09.977Z,94902.38
2023-05-03T20:52:11.632Z,94896.25
2023-05-03T20:54:13.287Z,94893.16
2023-05-03T20:56:14.937Z,94888.56
2023-05-03T20:58:16.548Z,94894.81
2023-05-03T21:00:18.200Z,94891.06
2023-05-03T21:02:19.794Z,94894.31
2023-05-03T21:04:22.001Z,94894.75
2023-05-03T21:06:23.593Z,94891.81
2023-05-03T21:08:25.367Z,94886.22
2023-05-03T21:10:26.972Z,94888.22
2023-05-03T21:12:28.635Z,94884.47
2023-05-03T21:14:30.391Z,94882.13
2023-05-03T21:16:32.034Z,94882.75
2023-05-03T21:18:33.732Z,94883.91
2023-05-03T21:20:36.782Z,94881.94
2023-05-03T21:22:38.374Z,94880.81
2023-05-03T21:24:39.955Z,94873.59
2023-05-03T21:26:41.857Z,94876.38
2023-05-03T21:28:43.446Z,94874.72
2023-05-03T21:30:48.306Z,94869.47
2023-05-03T21:32:50.732Z,94874.56
2023-05-03T21:34:53.730Z,94869.94
2023-05-03T21:36:55.415Z,94872.88
2023-05-03T21:38:58.022Z,94867.59
2023-05-03T21:41:06.710Z,94870.41
2023-05-03T21:43:09.878Z,94871.44
2023-05-03T21:45:12.086Z,94872.72
2023-05-03T21:47:14.578Z,94878.97
2023-05-03T21:49:16.150Z,94879.13
2023-05-03T21:51:24.997Z,94881.25
2023-05-03T21:53:26.837Z,94876.53
2023-05-03T21:55:28.683Z,94869.81
2023-05-03T21:57:31.900Z,94872.44
2023-05-03T21:59:34.718Z,94869.00
2023-05-03T22:01:36.960Z,94866.84
2023-05-03T22:03:40.107Z,94862.56
2023-05-03T22:05:44.834Z,94866.97
2023-05-03T22:07:47.703Z,94862.50
2023-05-03T22:09:49.524Z,94867.09
2023-05-03T22:11:51.089Z,94861.41
2023-05-03T22:14:06.719Z,94866.63
2023-05-03T22:16:12.345Z,94862.66
2023-05-03T22:18:14.670Z,94849.84
2023-05-03T22:20:16.403Z,94846.28
2023-05-03T22:22:18.017Z,94838.81
2023-05-03T22:24:19.618Z,94836.13
2023-05-03T22:26:21.231Z,94835.13
2023-05-03T22:28:22.944Z,94841.69
2023-05-03T22:30:24.604Z,94833.84
2023-05-03T22:32:26.206Z,94827.94
2023-05-03T22:34:27.908Z,94820.31
2023-05-03T22:36:29.529Z,94811.47
2023-05-03T22:38:31.390Z,94811.03
2023-05-03T22:40:33.384Z,94818.03
2023-05-03T22:42:35.407Z,94814.19
2023-05-03T22:44:37.277Z,94816.31
2023-05-03T22:46:38.967Z,94809.63
2023-05-03T22:48:40.525Z,94819.50
2023-05-03T22:50:42.149Z,94810.22
2023-05-03T22:52:43.882Z,94812.88
2023-05-03T22:54:45.681Z,94808.38
2023-05-03T22:56:47.236Z,94807.72
2023-05-03T22:58:48.908Z,94811.03
2023-05-03T23:00:50.827Z,94806.72
2023-05-03T23:02:52.509Z,94805.03
2023-05-03T23:04:54.920Z,94809.09
2023-05-03T23:06:56.727Z,94805.97
2023-05-03T23:08:58.546Z,94798.50
2023-05-03T23:11:00.153Z,94797.69
2023-05-03T23:13:02.025Z,94799.84
2023-05-03T23:15:04.425Z,94795.44
2023-05-03T23:17:06.359Z,94795.44
2023-05-03T23:19:08.364Z,94794.34
2023-05-03T23:21:10.217Z,94801.88
2023-05-03T23:23:12.037Z,94788.78
2023-05-03T23:25:16.146Z,94794.38
2023-05-03T23:27:17.684Z,94797.50
2023-05-03T23:29:19.794Z,94793.09
2023-05-03T23:31:21.959Z,94793.41
2023-05-03T23:33:23.956Z,94792.75
2023-05-03T23:35:25.984Z,94790.78
2023-05-03T23:37:27.703Z,94797.34
2023-05-03T23:39:29.286Z,94793.09
2023-05-03T23:41:30.945Z,94787.84
2023-05-03T23:43:32.699Z,94788.34
2023-05-03T23:45:34.248Z,94794.25
2023-05-03T23:47:36.956Z,94791.63
2023-05-03T23:49:39.720Z,94792.41
2023-05-03T23:51:41.340Z,94786.81
2023-05-03T23:53:42.929Z,94785.53
2023-05-03T23:55:44.588Z,94788.72
2023-05-03T23:57:46.421Z,94786.56
2023-05-03T23:59:47.989Z,94782.44
